Time;durP1;ratioP1;P1;durP2;ratioP2;P2;SDS_P1;SDS_P2;PMS_P1;PMS_P2;Temp;Humidity;BMP_temperature;BMP_pressure;BME280_temperature;BME280_humidity;BME280_pressure;Samples;Min_cycle;Max_cycle;Signal;HPM_P1;HPM_P2
2022/06/15 00:00:43;;;;;;;2.90;1.95;;;23.30;84.30;;;;;;6214681;23;20028;-78
2022/06/15 00:03:11;;;;;;;3.00;2.45;;;23.30;85.50;;;;;;6214870;23;20008;-79
2022/06/15 00:05:37;;;;;;;9.65;2.60;;;23.30;84.60;;;;;;6214749;23;20200;-78
2022/06/15 00:08:03;;;;;;;2.40;2.25;;;23.30;84.50;;;;;;6214835;23;20000;-79
2022/06/15 00:10:29;;;;;;;4.05;2.70;;;23.30;85.20;;;;;;6214968;23;20020;-79
2022/06/15 00:12:55;;;;;;;1.90;1.80;;;23.30;85.50;;;;;;6214815;23;20508;-79
2022/06/15 00:15:20;;;;;;;2.03;1.83;;;23.30;85.40;;;;;;6214897;23;20008;-79
2022/06/15 00:17:46;;;;;;;2.08;1.98;;;23.20;86.20;;;;;;6214661;23;20082;-79
2022/06/15 00:20:12;;;;;;;2.90;1.92;;;23.20;86.80;;;;;;6214419;23;20092;-79
2022/06/15 00:22:40;;;;;;;3.20;2.38;;;23.10;87.20;;;;;;6214837;23;20001;-79
2022/06/15 00:25:07;;;;;;;2.80;2.20;;;23.10;87.30;;;;;;6214950;23;19996;-79
2022/06/15 00:27:32;;;;;;;2.85;1.95;;;23.30;87.00;;;;;;6214331;23;20055;-79
2022/06/15 00:29:58;;;;;;;2.45;2.00;;;23.20;87.40;;;;;;6213957;23;20441;-79
2022/06/15 00:32:24;;;;;;;2.97;2.08;;;23.30;87.30;;;;;;6214749;23;20012;-79
2022/06/15 00:34:50;;;;;;;2.03;1.92;;;23.30;87.50;;;;;;6214618;23;20445;-78
2022/06/15 00:37:15;;;;;;;2.53;2.40;;;23.20;88.10;;;;;;6214474;23;20051;-78
2022/06/15 00:39:41;;;;;;;2.53;2.10;;;23.10;88.60;;;;;;6212756;23;20388;-78
2022/06/15 00:42:11;;;;;;;3.70;2.20;;;23.10;88.70;;;;;;6212917;23;20004;-79
2022/06/15 00:44:39;;;;;;;2.55;2.35;;;23.00;89.30;;;;;;6214511;23;20028;-79
2022/06/15 00:47:31;;;;;;;2.08;1.98;;;23.00;90.00;;;;;;6214428;23;20066;-79
2022/06/15 00:50:03;;;;;;;;;;;23.00;90.30;;;;;;6214891;23;20001;-79
2022/06/15 00:52:40;;;;;;;6.50;2.40;;;23.00;90.40;;;;;;6214318;23;19904;-79
2022/06/15 00:55:14;;;;;;;3.05;2.20;;;23.00;90.70;;;;;;6214582;23;20005;-79
2022/06/15 00:57:41;;;;;;;3.13;2.20;;;23.00;90.70;;;;;;6214432;23;20101;-79
2022/06/15 01:00:07;;;;;;;5.63;2.35;;;23.00;90.90;;;;;;6214365;23;20001;-78
2022/06/15 01:02:36;;;;;;;7.93;3.08;;;23.00;91.10;;;;;;6214376;23;19997;-79
2022/06/15 01:05:11;;;;;;;2.45;2.35;;;23.10;91.00;;;;;;6214292;23;20529;-79
2022/06/15 01:07:40;;;;;;;3.63;2.10;;;23.10;90.90;;;;;;6214202;23;20004;-79
2022/06/15 01:10:17;;;;;;;2.65;2.38;;;23.20;91.00;;;;;;6214331;23;20001;-79
2022/06/15 01:12:45;;;;;;;2.20;2.05;;;23.30;91.00;;;;;;6214411;23;20027;-78
2022/06/15 01:15:21;;;;;;;2.30;2.10;;;23.30;91.00;;;;;;6214161;23;20001;-79
2022/06/15 01:17:56;;;;;;;2.35;1.80;;;23.40;90.90;;;;;;6214164;23;19996;-79
2022/06/15 01:20:22;;;;;;;2.28;2.17;;;23.50;90.70;;;;;;6213812;23;20016;-79
2022/06/15 01:22:53;;;;;;;2.65;2.42;;;23.50;90.70;;;;;;6214409;23;20001;-79
2022/06/15 01:25:37;;;;;;;2.50;2.30;;;23.50;90.90;;;;;;6214216;23;20000;-79
2022/06/15 01:28:29;;;;;;;2.33;2.22;;;23.50;91.00;;;;;;6214106;23;20001;-79
2022/06/15 01:31:26;;;;;;;3.78;2.42;;;23.50;91.00;;;;;;6214080;23;20001;-79
2022/06/15 01:34:10;;;;;;;2.53;2.33;;;23.50;91.20;;;;;;6186921;23;20005;-79
2022/06/15 01:36:39;;;;;;;2.70;2.33;;;23.50;91.70;;;;;;6214393;23;20009;-79
2022/06/15 01:39:16;;;;;;;2.83;2.63;;;23.50;91.90;;;;;;6214049;23;20000;-79
2022/06/15 01:42:21;;;;;;;2.10;2.00;;;23.50;91.60;;;;;;6214057;23;20001;-79
2022/06/15 01:44:55;;;;;;;2.35;2.10;;;23.50;91.80;;;;;;6213972;23;20020;-79
2022/06/15 01:47:24;;;;;;;5.28;2.95;;;23.50;92.00;;;;;;6213784;23;20072;-79
2022/06/15 01:49:52;;;;;;;2.15;2.05;;;23.40;92.20;;;;;;6214100;23;20008;-79
2022/06/15 01:52:23;;;;;;;2.53;2.05;;;23.40;92.30;;;;;;6213811;23;20438;-78
2022/06/15 01:55:00;;;;;;;5.18;2.65;;;23.40;92.30;;;;;;6213903;23;20437;-79
2022/06/15 01:57:29;;;;;;;2.83;2.50;;;23.40;92.40;;;;;;6213672;23;20337;-78
2022/06/15 02:00:00;;;;;;;3.28;2.35;;;23.40;92.70;;;;;;6213761;23;20013;-79
2022/06/15 02:03:03;;;;;;;3.88;2.63;;;23.30;93.10;;;;;;6213828;23;19997;-79
2022/06/15 02:05:47;;;;;;;2.42;2.30;;;23.10;93.80;;;;;;6213751;23;20000;-79
2022/06/15 02:08:39;;;;;;;2.58;2.25;;;23.10;94.20;;;;;;6213630;23;20449;-79
2022/06/15 02:11:09;;;;;;;3.25;2.05;;;23.10;94.30;;;;;;6200893;23;20083;-79
2022/06/15 02:13:47;;;;;;;2.65;2.10;;;23.30;94.30;;;;;;6213861;23;20011;-79
2022/06/15 02:16:24;;;;;;;1.95;1.85;;;23.30;94.20;;;;;;6213862;23;20007;-78
2022/06/15 02:18:52;;;;;;;2.40;2.20;;;23.30;94.40;;;;;;6211885;23;20046;-79
2022/06/15 02:21:20;;;;;;;2.42;2.22;;;23.30;94.40;;;;;;6213617;23;20009;-79
2022/06/15 02:23:49;;;;;;;2.70;2.50;;;23.30;94.60;;;;;;6213807;23;20071;-79
2022/06/15 02:26:18;;;;;;;3.20;2.28;;;23.20;94.90;;;;;;6213810;23;20001;-79
2022/06/15 02:28:54;;;;;;;2.55;2.40;;;23.20;94.90;;;;;;6213790;23;20008;-79
2022/06/15 02:31:20;;;;;;;2.38;2.25;;;23.30;95.00;;;;;;6213534;23;20016;-79
2022/06/15 02:33:53;;;;;;;2.55;2.35;;;23.30;95.20;;;;;;6213784;23;20004;-79
2022/06/15 02:36:19;;;;;;;5.45;2.65;;;23.20;95.20;;;;;;6213456;23;20005;-79
2022/06/15 02:38:47;;;;;;;2.60;2.22;;;23.20;95.40;;;;;;6213605;23;20028;-79
2022/06/15 02:41:14;;;;;;;2.13;1.90;;;23.10;95.60;;;;;;6213309;23;20005;-79
2022/06/15 02:43:41;;;;;;;4.68;2.40;;;23.20;95.70;;;;;;6213536;23;20083;-79
2022/06/15 02:46:10;;;;;;;2.10;2.00;;;23.20;95.60;;;;;;6213840;23;20455;-78
2022/06/15 02:48:37;;;;;;;2.45;2.28;;;23.20;95.60;;;;;;6213627;23;19997;-78
2022/06/15 02:51:31;;;;;;;2.78;2.67;;;23.20;95.70;;;;;;6213668;23;20050;-78
2022/06/15 02:54:06;;;;;;;2.95;2.28;;;23.20;95.90;;;;;;6183408;23;20011;-79
2022/06/15 02:56:33;;;;;;;2.30;2.10;;;23.20;96.00;;;;;;6217226;23;20005;-78
2022/06/15 02:58:59;;;;;;;5.15;2.28;;;23.10;96.10;;;;;;6216935;23;20589;-78
2022/06/15 03:01:26;;;;;;;4.05;2.22;;;23.10;96.30;;;;;;6217049;23;20029;-79
2022/06/15 03:03:52;;;;;;;3.65;2.58;;;23.10;96.40;;;;;;6216913;23;20084;-79
2022/06/15 03:06:19;;;;;;;2.95;2.10;;;23.10;96.60;;;;;;6217128;23;20001;-78
2022/06/15 03:08:46;;;;;;;2.63;2.42;;;23.10;96.50;;;;;;6217078;23;19997;-79
2022/06/15 03:11:12;;;;;;;4.50;2.10;;;23.00;96.70;;;;;;6216976;23;20032;-79
2022/06/15 03:13:38;;;;;;;2.15;1.92;;;23.00;96.70;;;;;;6216755;23;20464;-79
2022/06/15 03:16:04;;;;;;;2.30;2.20;;;23.00;96.90;;;;;;6214323;23;20009;-78
2022/06/15 03:18:31;;;;;;;3.17;2.63;;;23.00;97.10;;;;;;6215414;23;20028;-78
2022/06/15 03:21:01;;;;;;;7.10;2.75;;;22.90;97.30;;;;;;6215648;23;20001;-79
2022/06/15 03:23:27;;;;;;;2.35;2.10;;;22.90;97.40;;;;;;6215585;23;20067;-78
2022/06/15 03:25:54;;;;;;;2.97;2.75;;;22.80;97.50;;;;;;6215804;23;20005;-79
2022/06/15 03:28:21;;;;;;;2.97;2.70;;;22.80;97.70;;;;;;6215652;23;20000;-78
2022/06/15 03:30:47;;;;;;;2.42;2.20;;;22.70;97.60;;;;;;6215646;23;20011;-78
2022/06/15 03:33:12;;;;;;;2.95;2.70;;;22.70;97.80;;;;;;6215640;23;20064;-79
2022/06/15 03:35:39;;;;;;;3.15;2.83;;;22.70;97.90;;;;;;6215279;23;20329;-79
2022/06/15 03:38:08;;;;;;;2.35;2.25;;;22.70;97.80;;;;;;6215237;23;20004;-79
2022/06/15 03:40:35;;;;;;;4.80;2.50;;;22.60;97.80;;;;;;6215138;23;20007;-79
2022/06/15 03:43:01;;;;;;;3.05;2.50;;;22.50;98.20;;;;;;6215412;23;19996;-79
2022/06/15 03:45:27;;;;;;;3.05;2.47;;;22.50;98.30;;;;;;6215195;23;20001;-79
2022/06/15 03:47:55;;;;;;;2.45;2.33;;;22.60;98.40;;;;;;6213528;23;20329;-79
2022/06/15 03:50:23;;;;;;;2.35;2.17;;;22.50;98.50;;;;;;6213584;23;20004;-79
2022/06/15 03:52:49;;;;;;;3.00;2.00;;;22.50;98.70;;;;;;6215396;23;20012;-79
2022/06/15 03:55:15;;;;;;;4.15;2.50;;;22.50;98.70;;;;;;6215027;23;20001;-79
2022/06/15 03:57:41;;;;;;;3.85;2.33;;;22.50;98.80;;;;;;6213394;23;20100;-79
2022/06/15 04:00:08;;;;;;;2.70;2.60;;;22.50;98.80;;;;;;6215229;23;20037;-79
2022/06/15 04:02:33;;;;;;;4.65;2.65;;;22.50;98.80;;;;;;6215213;23;20306;-79
2022/06/15 04:04:59;;;;;;;2.55;2.35;;;22.60;98.80;;;;;;6214495;23;20090;-79
2022/06/15 04:10:13;;;;;;;4.05;2.65;;;22.60;98.80;;;;;;6215244;23;20019;-79
2022/06/15 04:12:39;;;;;;;5.88;2.88;;;22.60;98.90;;;;;;6215089;23;20467;-79
2022/06/15 04:15:05;;;;;;;3.13;2.88;;;22.60;98.90;;;;;;6214958;23;20032;-78
2022/06/15 04:17:31;;;;;;;3.88;3.42;;;22.70;99.00;;;;;;6214850;23;20001;-79
2022/06/15 04:22:42;;;;;;;4.70;2.90;;;22.70;99.00;;;;;;6214804;23;20067;-79
2022/06/15 04:25:08;;;;;;;2.65;2.40;;;22.70;99.00;;;;;;6214821;23;20001;-79
2022/06/15 04:27:36;;;;;;;4.80;2.78;;;22.80;99.20;;;;;;6214817;23;20001;-79
2022/06/15 04:30:02;;;;;;;2.78;2.58;;;22.80;99.10;;;;;;6214902;23;20004;-78
2022/06/15 04:32:28;;;;;;;2.95;2.70;;;22.80;99.00;;;;;;6214506;23;20004;-79
2022/06/15 04:34:54;;;;;;;4.78;2.42;;;22.90;98.80;;;;;;6215216;23;20000;-78
2022/06/15 04:37:19;;;;;;;3.08;2.63;;;22.90;99.00;;;;;;6216188;23;20216;-79
2022/06/15 04:39:45;;;;;;;3.22;2.38;;;22.90;98.90;;;;;;6214647;23;20059;-79
2022/06/15 04:42:11;;;;;;;2.53;2.33;;;23.00;98.80;;;;;;6214316;23;20043;-78
2022/06/15 04:44:36;;;;;;;6.50;2.88;;;23.00;98.70;;;;;;6214168;23;20000;-79
2022/06/15 04:47:03;;;;;;;2.88;2.30;;;23.00;98.70;;;;;;6214457;23;20005;-78
2022/06/15 04:49:29;;;;;;;6.97;2.55;;;23.10;99.00;;;;;;6214346;23;20001;-79
2022/06/15 04:51:59;;;;;;;3.40;3.20;;;23.10;98.90;;;;;;6214429;23;20008;-79
2022/06/15 04:54:27;;;;;;;2.75;2.65;;;23.10;98.90;;;;;;6212905;23;20031;-79
2022/06/15 04:56:53;;;;;;;4.75;2.92;;;23.10;99.00;;;;;;6214334;23;20005;-78
2022/06/15 04:59:19;;;;;;;7.25;3.08;;;23.10;99.20;;;;;;6214378;23;20054;-79
2022/06/15 05:01:45;;;;;;;2.70;2.50;;;23.10;99.20;;;;;;6214994;23;20314;-79
2022/06/15 05:04:11;;;;;;;3.88;2.92;;;23.10;99.20;;;;;;6216179;23;19997;-79
2022/06/15 05:06:39;;;;;;;2.63;2.53;;;23.20;99.10;;;;;;6215991;23;20380;-79
2022/06/15 05:09:06;;;;;;;4.30;2.83;;;23.30;99.10;;;;;;6215924;23;20004;-79
2022/06/15 05:11:33;;;;;;;2.70;2.50;;;23.30;99.10;;;;;;6214774;23;20004;-79
2022/06/15 05:13:59;;;;;;;2.88;2.53;;;23.30;99.10;;;;;;6214347;23;20054;-79
2022/06/15 05:16:26;;;;;;;4.53;2.42;;;23.40;99.20;;;;;;6213941;23;20091;-78
2022/06/15 05:18:52;;;;;;;5.72;3.15;;;23.50;99.30;;;;;;6215007;23;20329;-78
2022/06/15 05:21:18;;;;;;;3.28;2.97;;;23.50;99.10;;;;;;6215791;23;20000;-79
2022/06/15 05:23:44;;;;;;;3.88;2.45;;;23.60;99.30;;;;;;6215849;23;20023;-79
2022/06/15 05:26:11;;;;;;;3.22;2.78;;;23.60;98.90;;;;;;6215459;23;20067;-79
2022/06/15 05:28:38;;;;;;;4.15;2.70;;;23.70;99.00;;;;;;6213408;23;20385;-74
2022/06/15 05:31:16;;;;;;;5.35;2.83;;;23.70;99.20;;;;;;6212703;23;20001;-74
2022/06/15 05:33:42;;;;;;;5.30;2.40;;;23.70;99.00;;;;;;6212978;23;20429;-74
2022/06/15 05:36:15;;;;;;;7.45;2.83;;;23.70;99.00;;;;;;6213798;23;20062;-74
2022/06/15 05:38:41;;;;;;;3.17;2.72;;;23.80;99.10;;;;;;6212761;23;20058;-74
2022/06/15 05:41:09;;;;;;;3.28;3.03;;;23.80;99.10;;;;;;6212314;23;20054;-74
2022/06/15 05:43:38;;;;;;;2.88;2.65;;;23.80;99.00;;;;;;6212207;23;20024;-74
2022/06/15 05:46:15;;;;;;;4.75;2.85;;;23.80;99.00;;;;;;6212694;23;20001;-74
2022/06/15 05:48:41;;;;;;;2.97;2.80;;;23.90;99.40;;;;;;6212685;23;20024;-74
2022/06/15 05:51:06;;;;;;;5.43;2.72;;;23.90;99.40;;;;;;6212605;23;20008;-74
2022/06/15 05:53:32;;;;;;;3.03;2.83;;;23.90;99.40;;;;;;6213370;23;20001;-74
2022/06/15 05:55:58;;;;;;;2.75;2.55;;;23.90;99.30;;;;;;6213743;23;20044;-74
2022/06/15 05:58:23;;;;;;;5.53;2.67;;;24.00;99.20;;;;;;6213700;23;20012;-74
2022/06/15 06:00:49;;;;;;;10.07;3.15;;;24.00;99.20;;;;;;6213665;23;20004;-74
2022/06/15 06:03:16;;;;;;;3.15;2.85;;;24.10;98.90;;;;;;6186835;23;20004;-74
2022/06/15 06:05:42;;;;;;;6.10;2.95;;;24.20;98.90;;;;;;6213907;23;20401;-74
2022/06/15 06:08:08;;;;;;;5.20;2.90;;;24.20;98.60;;;;;;6213760;23;20335;-74
2022/06/15 06:10:34;;;;;;;3.67;2.33;;;24.30;98.20;;;;;;6213662;23;20035;-74
2022/06/15 06:12:59;;;;;;;4.35;3.15;;;24.40;98.00;;;;;;6187102;23;20380;-74
2022/06/15 06:15:26;;;;;;;2.75;2.55;;;24.50;97.50;;;;;;6213943;23;20415;-74
2022/06/15 06:17:51;;;;;;;2.40;2.20;;;24.60;97.10;;;;;;6213452;23;20005;-74
2022/06/15 06:20:17;;;;;;;2.97;2.47;;;24.60;96.40;;;;;;6213596;23;20459;-74
2022/06/15 06:22:43;;;;;;;2.60;2.33;;;24.70;96.20;;;;;;6213135;23;20063;-74
2022/06/15 06:25:10;;;;;;;2.65;2.45;;;24.80;95.60;;;;;;6213731;23;20496;-74
2022/06/15 06:27:36;;;;;;;5.07;2.10;;;24.80;95.00;;;;;;6213352;23;20051;-74
2022/06/15 06:30:03;;;;;;;2.53;2.15;;;24.80;94.00;;;;;;6213570;23;20310;-74
2022/06/15 06:32:29;;;;;;;3.03;1.85;;;24.90;92.70;;;;;;6213678;23;20429;-74
2022/06/15 06:34:55;;;;;;;2.17;1.83;;;24.90;92.70;;;;;;6213304;23;20082;-74
2022/06/15 06:37:22;;;;;;;2.10;1.98;;;24.90;92.60;;;;;;6213331;23;20007;-74
2022/06/15 06:39:55;;;;;;;2.22;1.58;;;24.90;92.70;;;;;;6213455;23;20080;-74
2022/06/15 06:42:20;;;;;;;2.38;2.20;;;25.00;92.50;;;;;;6186413;23;20010;-74
2022/06/15 06:44:46;;;;;;;2.17;2.08;;;25.00;93.20;;;;;;6213735;23;20000;-74
2022/06/15 06:47:12;;;;;;;2.95;1.80;;;25.00;93.30;;;;;;6213409;23;20020;-74
2022/06/15 06:49:38;;;;;;;1.70;1.60;;;25.10;92.50;;;;;;6213503;23;20481;-74
2022/06/15 06:52:04;;;;;;;3.83;1.80;;;25.10;90.40;;;;;;6213302;23;20012;-74
2022/06/15 06:54:35;;;;;;;2.72;2.00;;;25.20;90.30;;;;;;6185020;23;20018;-74
2022/06/15 06:57:01;;;;;;;5.00;1.80;;;25.20;90.40;;;;;;6184274;23;20036;-74
2022/06/15 06:59:27;;;;;;;1.77;1.67;;;25.30;90.80;;;;;;6211142;23;20263;-74
2022/06/15 07:01:53;;;;;;;4.57;1.65;;;25.20;87.10;;;;;;6213253;23;20020;-74
2022/06/15 07:04:19;;;;;;;1.77;1.67;;;25.30;86.50;;;;;;6213321;23;20373;-74
2022/06/15 07:06:46;;;;;;;3.78;1.58;;;25.30;86.70;;;;;;6213084;23;20310;-74
2022/06/15 07:09:12;;;;;;;1.90;1.60;;;25.30;85.00;;;;;;6186587;23;20005;-74
2022/06/15 07:11:40;;;;;;;1.88;1.77;;;25.40;81.60;;;;;;6213413;23;20079;-74
2022/06/15 07:14:06;;;;;;;1.88;1.60;;;25.40;81.40;;;;;;6213430;23;20005;-74
2022/06/15 07:16:32;;;;;;;1.92;1.67;;;25.50;84.30;;;;;;6213236;23;20433;-74
2022/06/15 07:18:57;;;;;;;8.48;1.90;;;25.60;81.40;;;;;;6213156;23;20012;-74
2022/06/15 07:21:25;;;;;;;1.55;1.45;;;25.60;78.70;;;;;;6213009;23;20019;-74
2022/06/15 07:23:55;;;;;;;2.08;1.70;;;25.60;79.50;;;;;;6213365;23;20048;-74
2022/06/15 07:26:38;;;;;;;1.70;1.60;;;25.60;81.10;;;;;;6213315;23;20080;-74
2022/06/15 07:29:04;;;;;;;1.95;1.75;;;25.60;84.40;;;;;;6213227;23;20000;-74
2022/06/15 07:31:33;;;;;;;1.65;1.50;;;25.60;81.10;;;;;;6186751;23;20336;-74
2022/06/15 07:34:00;;;;;;;1.60;1.50;;;25.60;84.30;;;;;;6213165;23;20001;-74
2022/06/15 07:36:26;;;;;;;1.83;1.55;;;25.70;84.80;;;;;;6213422;23;20001;-74
2022/06/15 07:38:54;;;;;;;2.00;1.65;;;25.70;82.40;;;;;;6187189;23;20013;-74
2022/06/15 07:41:21;;;;;;;2.45;1.90;;;25.80;82.40;;;;;;6215116;23;20333;-74
2022/06/15 07:43:47;;;;;;;2.55;2.35;;;25.80;81.50;;;;;;6215024;23;20209;-75
2022/06/15 07:46:13;;;;;;;3.97;1.70;;;25.80;80.90;;;;;;6215307;23;19997;-74
2022/06/15 07:51:35;;;;;;;3.75;2.10;;;25.90;81.30;;;;;;6215850;23;20047;-74
2022/06/15 07:54:04;;;;;;;1.90;1.80;;;25.90;83.10;;;;;;6214466;23;20074;-74
2022/06/15 07:56:31;;;;;;;2.67;1.80;;;26.00;83.00;;;;;;6187362;23;20012;-74
2022/06/15 07:58:56;;;;;;;1.58;1.48;;;26.00;76.00;;;;;;6214394;23;20040;-75
2022/06/15 08:01:23;;;;;;;5.97;2.75;;;26.00;76.80;;;;;;6214209;23;20425;-74
2022/06/15 08:03:49;;;;;;;1.63;1.52;;;26.00;76.20;;;;;;6187365;23;20024;-74
2022/06/15 08:06:15;;;;;;;1.70;1.60;;;26.20;77.30;;;;;;6214566;23;20000;-74
2022/06/15 08:08:41;;;;;;;1.70;1.60;;;26.30;75.70;;;;;;6214738;23;20336;-74
2022/06/15 08:11:07;;;;;;;2.97;1.70;;;26.30;75.70;;;;;;6214718;23;20005;-74
2022/06/15 08:13:32;;;;;;;1.95;1.85;;;26.30;75.20;;;;;;6214512;23;20062;-74
2022/06/15 08:15:59;;;;;;;2.05;1.48;;;26.30;75.50;;;;;;6214559;23;20007;-74
2022/06/15 08:18:28;;;;;;;4.57;1.92;;;26.30;74.10;;;;;;6213777;23;20004;-74
2022/06/15 08:20:55;;;;;;;1.40;1.30;;;26.30;75.20;;;;;;6214434;23;20319;-74
2022/06/15 08:23:23;;;;;;;1.83;1.73;;;26.40;74.40;;;;;;6214449;23;20001;-74
2022/06/15 08:25:53;;;;;;;1.98;1.70;;;26.40;75.20;;;;;;6214904;23;20001;-74
2022/06/15 08:28:21;;;;;;;3.75;1.58;;;26.40;72.10;;;;;;6214409;23;20054;-74
2022/06/15 08:30:48;;;;;;;2.40;2.13;;;26.40;72.20;;;;;;6214317;23;20007;-74
2022/06/15 08:33:15;;;;;;;1.70;1.60;;;26.50;71.10;;;;;;6214606;23;20008;-74
2022/06/15 08:35:41;;;;;;;3.35;1.60;;;26.50;71.80;;;;;;6214415;23;20001;-74
2022/06/15 08:38:09;;;;;;;1.85;1.75;;;26.60;75.60;;;;;;6214676;23;20011;-74
2022/06/15 08:40:58;;;;;;;4.05;1.90;;;26.60;73.00;;;;;;6214212;23;20005;-74
2022/06/15 08:43:37;;;;;;;3.30;1.65;;;26.60;73.10;;;;;;6214719;23;20001;-74
2022/06/15 08:46:39;;;;;;;5.30;1.98;;;26.70;77.20;;;;;;6214369;23;20001;-74
2022/06/15 08:49:19;;;;;;;3.17;1.65;;;26.70;76.10;;;;;;6166439;23;20000;-74
2022/06/15 08:51:52;;;;;;;4.85;1.80;;;26.70;77.30;;;;;;6214048;23;20004;-74
2022/06/15 08:54:43;;;;;;;4.18;1.90;;;26.70;73.70;;;;;;6214557;23;20054;-74
2022/06/15 08:57:15;;;;;;;2.15;2.00;;;26.90;74.00;;;;;;6213976;23;20442;-74
2022/06/15 08:59:49;;;;;;;1.90;1.80;;;26.90;73.20;;;;;;6214208;23;20001;-74
2022/06/15 09:02:25;;;;;;;2.65;1.67;;;27.00;76.70;;;;;;6214216;23;20003;-74
2022/06/15 09:05:15;;;;;;;2.22;2.00;;;27.10;76.50;;;;;;6214518;23;20433;-71
2022/06/15 09:08:10;;;;;;;1.92;1.80;;;27.20;75.20;;;;;;6213963;23;20011;-74
2022/06/15 09:10:41;;;;;;;3.13;1.92;;;27.30;73.00;;;;;;6188056;23;20008;-74
2022/06/15 09:13:23;;;;;;;;;;;27.40;73.60;;;;;;6215046;23;20012;-74
2022/06/15 09:16:16;;;;;;;3.35;1.92;;;27.30;74.10;;;;;;6215072;23;19904;-72
2022/06/15 09:18:55;;;;;;;1.60;1.50;;;27.30;76.10;;;;;;6212911;23;20404;-74
2022/06/15 09:21:43;;;;;;;1.90;1.80;;;27.30;73.50;;;;;;6211455;23;20004;-74
2022/06/15 09:24:21;;;;;;;5.00;2.20;;;27.30;75.30;;;;;;6211633;23;20001;-74
2022/06/15 09:27:00;;;;;;;2.35;2.15;;;27.30;72.90;;;;;;6210402;23;19992;-75
2022/06/15 09:29:41;;;;;;;2.13;1.92;;;27.30;75.00;;;;;;6211232;23;20004;-74
2022/06/15 09:32:17;;;;;;;3.20;1.95;;;27.30;74.50;;;;;;6211400;23;20322;-74
2022/06/15 09:34:53;;;;;;;1.90;1.80;;;27.50;74.80;;;;;;6184443;23;20005;-74
2022/06/15 09:37:25;;;;;;;3.15;2.10;;;27.60;74.30;;;;;;6210895;23;20479;-74
2022/06/15 09:39:51;;;;;;;;;;;27.60;70.40;;;;;;6211342;23;20325;-75
2022/06/15 09:42:24;;;;;;;2.28;2.17;;;27.60;70.10;;;;;;6209954;23;19900;-75
2022/06/15 09:45:06;;;;;;;5.60;2.50;;;27.60;74.60;;;;;;6209186;23;20434;-74
2022/06/15 09:47:38;;;;;;;2.35;2.15;;;27.70;75.70;;;;;;6207940;23;20421;-74
2022/06/15 09:50:03;;;;;;;;;;;27.70;76.10;;;;;;6210965;23;20005;-75
2022/06/15 09:53:09;;;;;;;1.77;1.73;;;27.90;70.00;;;;;;6208900;23;20237;-74
2022/06/15 09:55:37;;;;;;;4.25;2.53;;;28.00;72.00;;;;;;6209719;23;20007;-74
2022/06/15 09:58:05;;;;;;;4.30;2.42;;;28.00;72.60;;;;;;6209813;23;20004;-74
2022/06/15 10:00:31;;;;;;;3.25;1.88;;;28.00;67.10;;;;;;6183093;23;20344;-78
2022/06/15 10:03:03;;;;;;;2.30;2.05;;;28.00;69.70;;;;;;6212986;23;20055;-78
2022/06/15 10:05:32;;;;;;;;;;;28.10;67.90;;;;;;6216007;23;20001;-78
2022/06/15 10:08:02;;;;;;;2.95;2.08;;;28.10;69.30;;;;;;6212966;23;20263;-78
2022/06/15 10:10:33;;;;;;;3.40;2.05;;;28.20;68.80;;;;;;6210442;23;20011;-78
2022/06/15 10:13:29;;;;;;;2.60;2.30;;;28.30;68.00;;;;;;6206486;23;20054;-76
2022/06/15 10:15:57;;;;;;;3.53;2.63;;;28.40;66.00;;;;;;6204736;23;20012;-78
2022/06/15 10:18:37;;;;;;;3.33;1.83;;;28.40;66.90;;;;;;6205747;23;20004;-78
2022/06/15 10:21:25;;;;;;;2.15;2.03;;;28.60;68.90;;;;;;6206068;23;20004;-78
2022/06/15 10:24:14;;;;;;;3.55;2.10;;;28.70;70.80;;;;;;6206372;23;20001;-75
2022/06/15 10:27:12;;;;;;;2.38;2.00;;;28.70;71.50;;;;;;6192983;23;20448;-78
2022/06/15 10:29:40;;;;;;;2.42;2.20;;;28.70;65.50;;;;;;6180813;23;20344;-77
2022/06/15 10:32:09;;;;;;;2.90;2.20;;;28.70;65.80;;;;;;6207889;23;20020;-77
2022/06/15 10:34:47;;;;;;;2.00;1.90;;;28.70;65.50;;;;;;6208175;23;20024;-77
2022/06/15 10:37:27;;;;;;;2.65;2.05;;;28.70;66.00;;;;;;6207834;23;20004;-76
2022/06/15 10:39:57;;;;;;;3.60;2.17;;;28.70;66.60;;;;;;6212238;23;20008;-76
2022/06/15 10:42:29;;;;;;;3.05;1.92;;;28.70;64.40;;;;;;6205146;23;20028;-77
2022/06/15 10:45:01;;;;;;;2.30;2.20;;;28.70;66.40;;;;;;6210010;23;20353;-77
2022/06/15 10:47:48;;;;;;;4.43;2.63;;;29.00;67.20;;;;;;6210757;23;20071;-77
2022/06/15 10:50:40;;;;;;;3.80;2.50;;;29.10;63.30;;;;;;6212929;23;20007;-77
2022/06/15 10:53:31;;;;;;;5.68;2.42;;;29.20;62.30;;;;;;6209272;23;20452;-76
2022/06/15 11:02:07;;;;;;;5.38;2.60;;;29.50;62.00;;;;;;6211347;23;20391;-76
2022/06/15 11:05:04;;;;;;;2.58;2.20;;;29.50;63.70;;;;;;6213057;23;20001;-76
2022/06/15 11:07:34;;;;;;;2.55;2.35;;;29.80;64.10;;;;;;6213165;23;20309;-76
2022/06/15 11:10:29;;;;;;;2.95;2.75;;;29.90;63.90;;;;;;6186614;23;20004;-77
2022/06/15 11:13:00;;;;;;;2.55;2.30;;;29.80;60.20;;;;;;6211774;23;20095;-76
2022/06/15 11:18:32;;;;;;;3.53;2.40;;;30.00;61.90;;;;;;6213969;23;20020;-76
2022/06/15 11:21:22;;;;;;;3.15;2.85;;;30.10;63.20;;;;;;6209182;23;20015;-75
2022/06/15 11:24:02;;;;;;;2.60;2.42;;;30.30;65.20;;;;;;6210145;23;20054;-75
2022/06/15 11:26:52;;;;;;;2.53;2.42;;;30.40;62.90;;;;;;6210416;23;20023;-75
2022/06/15 11:29:43;;;;;;;4.50;2.78;;;30.60;64.00;;;;;;6209482;23;20005;-75
2022/06/15 11:32:22;;;;;;;2.90;2.70;;;30.60;61.40;;;;;;6183462;23;20383;-75
2022/06/15 11:35:02;;;;;;;3.00;2.60;;;30.60;61.90;;;;;;6210783;23;20448;-75
2022/06/15 11:38:02;;;;;;;2.90;2.70;;;30.70;63.20;;;;;;6183665;23;20019;-75
2022/06/15 11:40:48;;;;;;;2.83;2.72;;;30.80;61.60;;;;;;6209557;23;20292;-75
2022/06/15 11:43:22;;;;;;;3.15;2.67;;;30.80;63.10;;;;;;6210794;23;20004;-75
2022/06/15 11:45:58;;;;;;;4.18;2.60;;;30.90;61.40;;;;;;6210024;23;20000;-75
2022/06/15 11:48:39;;;;;;;3.65;2.50;;;31.10;61.70;;;;;;6183760;23;20009;-75
2022/06/15 11:51:17;;;;;;;2.55;2.38;;;31.30;63.00;;;;;;6183603;23;20009;-75
2022/06/15 11:53:55;;;;;;;4.32;2.45;;;31.50;64.40;;;;;;6210468;23;20374;-75
2022/06/15 11:56:24;;;;;;;2.92;2.42;;;31.70;63.10;;;;;;6210560;23;20050;-75
2022/06/15 11:59:19;;;;;;;2.85;2.50;;;31.70;59.10;;;;;;6182753;23;20008;-75
2022/06/15 12:01:56;;;;;;;2.58;2.38;;;31.70;59.30;;;;;;6188512;23;20025;-75
2022/06/15 12:04:40;;;;;;;5.45;3.22;;;31.80;59.70;;;;;;6209951;23;20024;-75
2022/06/15 12:07:24;;;;;;;2.70;2.50;;;31.90;60.00;;;;;;6208860;23;20011;-75
2022/06/15 12:10:04;;;;;;;3.22;2.92;;;32.00;59.40;;;;;;6208929;23;20028;-75
2022/06/15 12:12:53;;;;;;;6.32;2.42;;;31.90;58.40;;;;;;6182673;23;20321;-75
2022/06/15 12:15:44;;;;;;;6.97;2.58;;;32.00;60.70;;;;;;6210336;23;20340;-75
2022/06/15 12:18:28;;;;;;;3.08;2.83;;;32.40;61.00;;;;;;6182582;23;20479;-75
2022/06/15 12:21:18;;;;;;;2.88;2.45;;;32.40;59.00;;;;;;6209065;23;20008;-75
2022/06/15 12:23:56;;;;;;;6.43;2.97;;;32.30;55.80;;;;;;6210085;23;20032;-75
2022/06/15 12:26:51;;;;;;;5.40;2.78;;;32.50;58.00;;;;;;6210185;23;20417;-75
2022/06/15 12:29:29;;;;;;;4.60;2.85;;;32.60;56.80;;;;;;6208745;23;20076;-75
2022/06/15 12:32:36;;;;;;;3.28;2.80;;;32.60;55.30;;;;;;6208977;23;20008;-75
2022/06/15 12:35:11;;;;;;;4.30;2.50;;;32.70;56.40;;;;;;6189704;23;20004;-75
2022/06/15 12:37:41;;;;;;;5.57;2.70;;;32.80;57.00;;;;;;6208884;23;20004;-75
2022/06/15 12:40:13;;;;;;;3.00;2.85;;;32.90;57.40;;;;;;6210913;23;20008;-75
2022/06/15 12:42:41;;;;;;;;;;;32.90;55.70;;;;;;6211921;23;20028;-75
2022/06/15 12:45:22;;;;;;;3.42;2.70;;;32.90;54.80;;;;;;6210472;23;19900;-75
2022/06/15 12:47:57;;;;;;;5.57;2.95;;;33.10;55.90;;;;;;6210708;23;19997;-75
2022/06/15 12:50:42;;;;;;;5.15;3.28;;;33.20;55.30;;;;;;6210209;23;20084;-75
2022/06/15 12:53:20;;;;;;;4.13;2.78;;;33.20;54.90;;;;;;6211174;23;20092;-75
2022/06/15 12:56:05;;;;;;;8.95;4.15;;;33.20;54.30;;;;;;6209267;23;20013;-75
2022/06/15 12:58:56;;;;;;;5.57;2.95;;;33.40;55.20;;;;;;6211042;23;20004;-75
2022/06/15 13:01:24;;;;;;;3.60;3.30;;;33.40;54.80;;;;;;6208978;23;20051;-75
2022/06/15 13:04:10;;;;;;;3.10;2.90;;;33.20;52.90;;;;;;6209663;23;20000;-75
2022/06/15 13:06:45;;;;;;;3.45;3.15;;;33.40;53.70;;;;;;6207359;23;20583;-75
2022/06/15 13:09:14;;;;;;;2.92;2.72;;;33.50;52.70;;;;;;6208696;23;20455;-75
2022/06/15 13:12:09;;;;;;;3.70;2.90;;;33.60;52.70;;;;;;6208151;23;20005;-75
2022/06/15 13:14:44;;;;;;;5.25;2.90;;;33.70;53.90;;;;;;6208457;23;20031;-74
2022/06/15 13:17:19;;;;;;;4.07;3.13;;;33.80;54.50;;;;;;6206967;23;20436;-74
2022/06/15 13:19:50;;;;;;;3.30;3.00;;;33.90;53.40;;;;;;6208489;23;20127;-74
2022/06/15 13:22:23;;;;;;;3.35;3.05;;;34.00;52.80;;;;;;6209467;23;20000;-74
2022/06/15 13:25:12;;;;;;;3.40;3.10;;;34.10;53.70;;;;;;6210128;23;20004;-75
2022/06/15 13:27:44;;;;;;;5.07;3.38;;;34.00;53.90;;;;;;6208317;23;20005;-74
2022/06/15 13:30:21;;;;;;;4.13;2.95;;;34.00;53.10;;;;;;6208685;23;20055;-75
2022/06/15 13:33:00;;;;;;;4.97;3.88;;;34.10;53.80;;;;;;6209452;23;20005;-75